createdAt,value
2018-08-20T00:02:05.732Z,9.00
2018-08-20T00:04:39.617Z,8.53
2018-08-20T00:07:08.314Z,8.23
2018-08-20T00:09:42.329Z,7.13
2018-08-20T00:12:10.963Z,7.80
2018-08-20T00:14:39.565Z,8.47
2018-08-20T00:17:08.224Z,8.40
2018-08-20T00:19:36.953Z,8.37
2018-08-20T00:22:05.621Z,7.87
2018-08-20T00:24:34.204Z,8.97
2018-08-20T00:27:03.677Z,8.90
2018-08-20T00:29:35.645Z,9.30
2018-08-20T00:32:04.455Z,9.33
2018-08-20T00:34:33.073Z,9.07
2018-08-20T00:37:01.680Z,9.03
2018-08-20T00:39:30.299Z,8.73
2018-08-20T00:41:58.985Z,9.20
2018-08-20T00:44:27.588Z,9.00
2018-08-20T00:46:56.216Z,9.50
2018-08-20T00:49:24.809Z,9.97
2018-08-20T00:51:53.431Z,9.80
2018-08-20T00:54:22.029Z,9.20
2018-08-20T00:56:50.645Z,8.37
2018-08-20T00:59:19.251Z,9.07
2018-08-20T01:01:48.012Z,8.47
2018-08-20T01:04:16.590Z,9.03
2018-08-20T01:06:45.248Z,9.73
2018-08-20T01:09:13.853Z,9.10
2018-08-20T01:14:35.073Z,9.33
2018-08-20T01:17:03.728Z,9.40
2018-08-20T01:19:32.321Z,9.43
2018-08-20T01:22:01.099Z,9.70
2018-08-20T01:24:29.738Z,9.23
2018-08-20T01:26:58.324Z,8.30
2018-08-20T01:29:26.940Z,8.63
2018-08-20T01:31:55.593Z,8.50
2018-08-20T01:34:24.228Z,9.40
2018-08-20T01:36:52.826Z,10.43
2018-08-20T01:39:21.431Z,9.13
2018-08-20T01:41:50.061Z,10.40
2018-08-20T01:44:18.649Z,8.70
2018-08-20T01:46:47.252Z,8.97
2018-08-20T01:49:15.832Z,10.30
2018-08-20T01:51:44.461Z,9.60
2018-08-20T01:54:13.062Z,8.83
2018-08-20T01:56:41.669Z,9.97
2018-08-20T01:59:10.314Z,9.70
2018-08-20T02:01:38.976Z,10.50
2018-08-20T02:04:07.644Z,10.10
2018-08-20T02:06:36.292Z,10.00
2018-08-20T02:09:06.702Z,9.37
2018-08-20T02:11:35.333Z,10.20
2018-08-20T02:14:03.969Z,9.20
2018-08-20T02:16:32.627Z,10.37
2018-08-20T02:19:01.224Z,10.10
2018-08-20T02:21:29.845Z,10.53
2018-08-20T02:23:58.451Z,10.67
2018-08-20T02:26:27.072Z,10.40
2018-08-20T02:28:55.693Z,11.37
2018-08-20T02:31:24.309Z,10.27
2018-08-20T02:33:52.910Z,9.87
2018-08-20T02:36:21.572Z,10.80
2018-08-20T02:38:50.226Z,10.03
2018-08-20T02:41:18.880Z,11.07
2018-08-20T02:43:47.538Z,10.90
2018-08-20T02:46:16.677Z,11.20
2018-08-20T02:48:45.280Z,12.07
2018-08-20T02:51:13.910Z,12.17
2018-08-20T02:53:42.509Z,11.07
2018-08-20T02:56:11.155Z,10.97
2018-08-20T02:58:39.782Z,10.27
2018-08-20T03:01:08.989Z,10.47
2018-08-20T03:03:37.663Z,10.03
2018-08-20T03:06:06.395Z,9.70
2018-08-20T03:08:35.013Z,11.30
2018-08-20T03:11:03.604Z,10.43
2018-08-20T03:13:32.262Z,10.47
2018-08-20T03:16:00.858Z,11.17
2018-08-20T03:18:29.473Z,11.40
2018-08-20T03:20:58.071Z,10.83
2018-08-20T03:23:26.696Z,10.90
2018-08-20T03:25:55.298Z,11.07
2018-08-20T03:28:23.968Z,10.33
2018-08-20T03:30:52.600Z,11.70
2018-08-20T03:33:21.255Z,10.60
2018-08-20T03:35:49.920Z,9.57
2018-08-20T03:38:18.525Z,10.03
2018-08-20T03:40:47.133Z,10.43
2018-08-20T03:43:15.822Z,10.13
2018-08-20T03:45:44.458Z,10.17
2018-08-20T03:48:13.116Z,9.60
2018-08-20T03:50:41.805Z,10.53
2018-08-20T03:53:10.516Z,11.40
2018-08-20T03:55:39.134Z,10.63
2018-08-20T03:58:07.770Z,11.27
2018-08-20T04:00:36.377Z,11.57
2018-08-20T04:03:05.002Z,12.00
2018-08-20T04:05:33.597Z,11.10
2018-08-20T04:08:02.234Z,11.30
2018-08-20T04:10:30.823Z,12.47
2018-08-20T04:12:59.426Z,11.93
2018-08-20T04:15:28.018Z,11.80
2018-08-20T04:17:56.590Z,12.63
2018-08-20T04:20:25.189Z,12.33
2018-08-20T04:22:53.845Z,11.93
2018-08-20T04:25:22.469Z,12.20
2018-08-20T04:27:51.149Z,11.30
2018-08-20T04:30:19.755Z,12.67
2018-08-20T04:32:48.444Z,12.37
2018-08-20T04:35:17.065Z,13.37
2018-08-20T04:37:45.889Z,11.77
2018-08-20T04:40:14.513Z,11.50
2018-08-20T04:42:43.129Z,13.00
2018-08-20T04:45:11.811Z,12.60
2018-08-20T04:47:40.412Z,12.90
2018-08-20T04:50:10.696Z,12.10
2018-08-20T04:52:40.065Z,13.47
2018-08-20T04:55:08.901Z,12.73
2018-08-20T04:57:37.468Z,12.57
2018-08-20T05:00:08.274Z,13.30
2018-08-20T05:02:36.850Z,12.83
2018-08-20T05:05:05.578Z,12.40
2018-08-20T05:07:34.635Z,12.47
2018-08-20T05:10:03.325Z,12.90
2018-08-20T05:12:31.907Z,12.57
2018-08-20T05:15:00.556Z,14.63
2018-08-20T05:17:29.326Z,12.70
2018-08-20T05:19:57.981Z,14.13
2018-08-20T05:22:26.551Z,13.40
2018-08-20T05:24:55.164Z,14.17
2018-08-20T05:27:23.772Z,13.27
2018-08-20T05:29:52.392Z,12.53
2018-08-20T05:32:20.997Z,12.03
2018-08-20T05:34:49.866Z,11.80
2018-08-20T05:37:18.464Z,11.20
2018-08-20T05:39:47.075Z,13.30
2018-08-20T05:42:15.709Z,13.30
2018-08-20T05:44:44.389Z,13.20
2018-08-20T05:47:13.043Z,11.53
2018-08-20T05:49:41.672Z,12.53
2018-08-20T05:52:10.292Z,12.00
2018-08-20T05:54:38.897Z,12.27
2018-08-20T05:57:07.577Z,12.83
2018-08-20T05:59:36.213Z,13.40
2018-08-20T06:02:04.940Z,12.27
2018-08-20T06:04:33.612Z,11.73
2018-08-20T06:07:02.281Z,13.73
2018-08-20T06:09:30.889Z,13.43
2018-08-20T06:11:59.494Z,12.90
2018-08-20T06:14:28.125Z,14.70
2018-08-20T06:16:56.776Z,12.30
2018-08-20T06:19:25.475Z,14.30
2018-08-20T06:21:54.069Z,12.20
2018-08-20T06:24:22.710Z,14.37
2018-08-20T06:26:51.303Z,12.80
2018-08-20T06:29:19.934Z,12.67
2018-08-20T06:31:48.536Z,10.47
2018-08-20T06:34:17.162Z,11.80
2018-08-20T06:47:47.162Z,11.20
2018-08-20T06:50:16.164Z,10.77
2018-08-20T06:52:45.526Z,10.27
2018-08-20T06:55:15.364Z,8.93
2018-08-20T06:57:45.159Z,8.30
2018-08-20T07:00:29.725Z,9.27
2018-08-20T07:02:58.450Z,9.67
2018-08-20T07:05:27.275Z,8.50
2018-08-20T07:07:55.872Z,8.20
2018-08-20T07:10:24.874Z,9.07
2018-08-20T07:12:53.627Z,9.20
2018-08-20T07:15:22.241Z,9.00
2018-08-20T07:17:50.807Z,9.60
2018-08-20T07:20:19.382Z,10.23
2018-08-20T07:22:48.046Z,9.20
2018-08-20T07:25:16.633Z,9.87
2018-08-20T07:27:45.205Z,9.20
2018-08-20T07:30:13.758Z,9.03
2018-08-20T07:32:42.331Z,9.63
2018-08-20T07:35:10.944Z,10.20
2018-08-20T07:37:39.468Z,9.53
2018-08-20T07:40:08.665Z,10.07
2018-08-20T07:42:37.287Z,9.40
2018-08-20T07:45:05.948Z,10.33
2018-08-20T07:47:34.508Z,9.13
2018-08-20T07:50:03.159Z,9.20
2018-08-20T07:52:31.725Z,8.63
2018-08-20T07:55:00.303Z,8.87
2018-08-20T07:57:28.854Z,7.87
2018-08-20T07:59:57.533Z,8.07
2018-08-20T08:02:26.112Z,7.70
2018-08-20T08:04:54.725Z,7.87
2018-08-20T08:07:23.245Z,8.37
2018-08-20T08:09:51.861Z,8.50
2018-08-20T08:12:20.374Z,9.03
2018-08-20T08:14:49.006Z,7.90
2018-08-20T08:17:17.600Z,7.90
2018-08-20T08:19:46.297Z,8.70
2018-08-20T08:22:14.808Z,8.23
2018-08-20T08:24:43.282Z,8.00
2018-08-20T08:27:12.435Z,8.40
2018-08-20T08:29:41.027Z,7.70
2018-08-20T08:32:09.670Z,8.40
2018-08-20T08:34:38.264Z,9.20
2018-08-20T08:37:06.955Z,8.47
2018-08-20T08:39:35.510Z,8.20
2018-08-20T08:42:04.120Z,8.80
2018-08-20T08:44:32.742Z,7.30
2018-08-20T08:47:01.496Z,8.00
2018-08-20T08:49:30.249Z,8.90
2018-08-20T08:51:59.222Z,8.03
2018-08-20T08:54:27.757Z,8.10
2018-08-20T08:56:56.358Z,8.53
2018-08-20T08:59:24.977Z,8.73
2018-08-20T09:01:53.617Z,7.30
2018-08-20T09:04:22.168Z,8.00
2018-08-20T09:06:50.742Z,8.07
2018-08-20T09:09:19.390Z,9.60
2018-08-20T09:11:47.965Z,6.80
2018-08-20T09:14:16.561Z,7.10
2018-08-20T09:16:45.143Z,6.87
2018-08-20T09:19:13.732Z,6.60
2018-08-20T09:21:42.408Z,6.87
2018-08-20T09:24:11.041Z,7.03
2018-08-20T09:26:39.595Z,6.70
2018-08-20T09:29:08.156Z,7.80
2018-08-20T09:31:36.697Z,6.83
2018-08-20T09:34:05.244Z,6.60
2018-08-20T09:36:33.837Z,7.10
2018-08-20T09:39:02.572Z,7.30
2018-08-20T09:41:31.145Z,8.13
2018-08-20T09:43:59.699Z,6.40
2018-08-20T09:46:28.281Z,6.30
2018-08-20T09:48:56.919Z,6.57
2018-08-20T09:51:25.506Z,7.07
2018-08-20T09:53:54.036Z,8.17
2018-08-20T09:56:22.597Z,6.73
2018-08-20T09:58:51.137Z,6.30
2018-08-20T10:01:19.671Z,7.67
2018-08-20T10:03:48.190Z,6.77
2018-08-20T10:06:16.959Z,7.10
2018-08-20T10:08:45.518Z,6.90
2018-08-20T10:11:14.485Z,7.10
2018-08-20T10:13:43.032Z,6.43
2018-08-20T10:16:11.625Z,7.03
2018-08-20T10:18:40.297Z,7.20
2018-08-20T10:21:08.943Z,7.17
2018-08-20T10:23:37.598Z,6.03
2018-08-20T10:26:07.325Z,6.30
2018-08-20T10:28:35.948Z,6.90
2018-08-20T10:31:04.754Z,6.00
2018-08-20T10:33:33.309Z,7.10
2018-08-20T10:36:01.892Z,6.17
2018-08-20T10:38:30.485Z,7.00
2018-08-20T10:40:59.073Z,6.90
2018-08-20T10:43:27.625Z,7.60
2018-08-20T10:46:01.517Z,7.83
2018-08-20T10:48:30.075Z,7.50
2018-08-20T10:50:58.617Z,6.77
2018-08-20T10:53:27.221Z,7.20
2018-08-20T10:55:55.836Z,6.87
2018-08-20T10:58:24.533Z,8.00
2018-08-20T11:00:53.077Z,6.83
2018-08-20T11:03:21.712Z,6.97
2018-08-20T11:05:50.264Z,7.80
2018-08-20T11:08:19.085Z,7.27
2018-08-20T11:10:47.700Z,6.73
2018-08-20T11:13:16.234Z,7.00
2018-08-20T11:15:44.846Z,5.97
2018-08-20T11:18:13.481Z,6.47
2018-08-20T11:20:42.052Z,7.20
2018-08-20T11:23:10.673Z,6.87
2018-08-20T11:25:39.233Z,6.90
2018-08-20T11:28:07.885Z,7.63
2018-08-20T11:30:36.455Z,6.23
2018-08-20T11:33:05.056Z,7.00
2018-08-20T11:35:33.619Z,7.57
2018-08-20T11:38:02.233Z,6.80
2018-08-20T11:40:30.792Z,6.17
2018-08-20T11:42:59.400Z,5.77
2018-08-20T11:45:27.980Z,7.07
2018-08-20T11:47:56.825Z,6.07
2018-08-20T11:50:25.488Z,5.97
2018-08-20T11:52:54.098Z,6.27
2018-08-20T11:55:22.726Z,6.30
2018-08-20T11:57:51.343Z,5.30
2018-08-20T12:00:19.928Z,4.43
2018-08-20T12:02:48.573Z,6.10
2018-08-20T12:05:17.180Z,3.73
2018-08-20T12:07:45.878Z,3.60
2018-08-20T12:10:14.413Z,4.70
2018-08-20T12:12:43.081Z,5.30
2018-08-20T12:15:12.677Z,5.47
2018-08-20T12:17:42.333Z,5.20
2018-08-20T12:20:10.907Z,9.67
2018-08-20T12:22:40.196Z,5.20
2018-08-20T12:25:11.964Z,4.20
2018-08-20T12:27:40.576Z,4.20
2018-08-20T12:30:10.227Z,4.33
2018-08-20T12:32:38.840Z,3.90
2018-08-20T12:35:07.990Z,3.63
2018-08-20T12:37:37.765Z,3.90
2018-08-20T12:40:06.696Z,4.80
2018-08-20T12:42:35.245Z,4.73
2018-08-20T12:45:04.095Z,4.47
2018-08-20T12:47:32.710Z,4.43
2018-08-20T12:50:01.269Z,3.83
2018-08-20T12:52:29.836Z,4.70
2018-08-20T12:54:58.361Z,3.73
2018-08-20T12:57:26.965Z,4.70
2018-08-20T12:59:57.975Z,4.43
2018-08-20T13:02:26.666Z,4.27
2018-08-20T13:04:55.217Z,4.80
2018-08-20T13:07:23.880Z,4.40
2018-08-20T13:09:52.466Z,4.77
2018-08-20T13:12:21.037Z,3.70
2018-08-20T13:14:49.586Z,4.93
2018-08-20T13:17:18.584Z,5.50
2018-08-20T13:19:47.188Z,5.00
2018-08-20T13:22:15.721Z,4.63
2018-08-20T13:24:44.286Z,5.00
2018-08-20T13:27:12.825Z,4.60
2018-08-20T13:29:41.450Z,3.30
2018-08-20T13:32:10.144Z,3.90
2018-08-20T13:34:38.704Z,3.23
2018-08-20T13:37:07.373Z,3.60
2018-08-20T13:39:35.888Z,4.00
2018-08-20T13:42:04.537Z,4.70
2018-08-20T13:44:33.130Z,5.50
2018-08-20T13:47:01.717Z,5.50
2018-08-20T13:49:30.414Z,2.97
2018-08-20T13:51:59.570Z,4.83
2018-08-20T13:54:28.234Z,5.57
2018-08-20T13:56:56.821Z,3.63
2018-08-20T13:59:25.385Z,10.67
2018-08-20T14:01:53.944Z,4.70
2018-08-20T14:04:22.538Z,4.00
2018-08-20T14:06:51.125Z,3.83
2018-08-20T14:09:19.678Z,3.80
2018-08-20T14:11:48.204Z,3.13
2018-08-20T14:14:16.797Z,3.90
2018-08-20T14:16:45.407Z,3.30
2018-08-20T14:19:14.011Z,3.27
2018-08-20T14:21:42.619Z,3.43
2018-08-20T14:24:11.558Z,3.90
2018-08-20T14:26:40.133Z,3.30
2018-08-20T14:29:08.720Z,3.80
2018-08-20T14:52:53.669Z,2.73
2018-08-20T14:55:22.257Z,3.27
2018-08-20T14:57:50.849Z,3.30
2018-08-20T15:00:19.482Z,2.70
2018-08-20T15:02:48.070Z,3.00
2018-08-20T15:05:16.706Z,3.23
2018-08-20T15:07:45.310Z,2.73
2018-08-20T15:10:14.133Z,2.80
2018-08-20T15:12:42.700Z,2.40
2018-08-20T15:15:11.345Z,2.63
2018-08-20T15:17:39.970Z,2.60
2018-08-20T15:20:09.425Z,2.60
2018-08-20T15:22:38.664Z,2.27
2018-08-20T15:25:07.413Z,2.60
2018-08-20T15:27:35.986Z,2.30
2018-08-20T15:30:05.022Z,3.60
2018-08-20T15:32:33.666Z,3.10
2018-08-20T15:35:02.261Z,4.83
2018-08-20T15:37:30.816Z,2.47
2018-08-20T15:39:59.400Z,3.30
2018-08-20T15:42:28.005Z,4.20
2018-08-20T15:44:56.621Z,2.30
2018-08-20T15:47:25.224Z,4.10
2018-08-20T15:49:53.817Z,2.40
2018-08-20T15:52:22.406Z,3.40
2018-08-20T15:54:51.027Z,4.13
2018-08-20T15:57:19.606Z,2.70
2018-08-20T15:59:48.263Z,4.60
2018-08-20T16:04:52.064Z,4.33
2018-08-20T16:07:21.021Z,4.40
2018-08-20T16:09:49.705Z,2.67
2018-08-20T16:12:18.625Z,4.10
2018-08-20T16:14:47.282Z,3.53
2018-08-20T16:17:15.882Z,4.57
2018-08-20T16:19:44.466Z,4.70
2018-08-20T16:22:13.127Z,3.03
2018-08-20T16:24:41.694Z,4.10
2018-08-20T16:27:10.255Z,3.97
2018-08-20T16:29:38.845Z,3.67
2018-08-20T16:32:07.510Z,5.70
2018-08-20T16:34:36.165Z,3.73
2018-08-20T16:37:04.836Z,2.73
2018-08-20T16:39:33.454Z,5.20
2018-08-20T16:42:02.026Z,2.60
2018-08-20T16:44:30.617Z,2.23
2018-08-20T16:46:59.241Z,2.07
2018-08-20T16:49:27.900Z,2.47
2018-08-20T16:51:56.455Z,2.67
2018-08-20T16:54:25.093Z,3.00
2018-08-20T16:56:53.825Z,1.97
2018-08-20T16:59:22.440Z,2.70
2018-08-20T17:01:51.044Z,2.30
2018-08-20T17:04:33.591Z,2.60
2018-08-20T17:07:02.864Z,2.77
2018-08-20T17:09:31.418Z,2.60
2018-08-20T17:11:59.952Z,2.80
2018-08-20T17:14:28.577Z,2.80
2018-08-20T17:16:57.218Z,2.57
2018-08-20T17:19:25.873Z,2.90
2018-08-20T17:21:54.528Z,3.00
2018-08-20T17:24:28.927Z,2.23
2018-08-20T17:26:58.405Z,2.80
2018-08-20T17:29:27.074Z,2.50
2018-08-20T17:31:55.741Z,2.30
2018-08-20T17:34:24.490Z,3.60
2018-08-20T17:36:53.545Z,3.20
2018-08-20T17:39:22.222Z,2.70
2018-08-20T17:41:50.809Z,3.87
2018-08-20T17:44:22.189Z,2.43
2018-08-20T17:46:50.822Z,3.10
2018-08-20T17:49:24.733Z,3.80
2018-08-20T17:51:53.328Z,2.87
2018-08-20T17:54:21.937Z,4.03
2018-08-20T17:56:50.546Z,2.43
2018-08-20T17:59:19.293Z,3.60
2018-08-20T18:01:47.916Z,4.00
2018-08-20T18:04:18.364Z,2.63
2018-08-20T18:06:52.744Z,4.80
2018-08-20T18:09:21.384Z,2.10
2018-08-20T18:11:50.975Z,4.90
2018-08-20T18:14:21.380Z,2.43
2018-08-20T18:16:50.019Z,4.10
2018-08-20T18:19:18.710Z,3.77
2018-08-20T18:21:47.524Z,2.60
2018-08-20T18:24:18.115Z,4.87
2018-08-20T18:26:51.444Z,3.10
2018-08-20T18:29:20.091Z,3.83
2018-08-20T18:31:56.924Z,2.87
2018-08-20T18:34:25.487Z,3.87
2018-08-20T18:36:54.201Z,3.07
2018-08-20T18:39:22.796Z,4.27
2018-08-20T18:42:10.318Z,4.50
2018-08-20T18:44:39.010Z,4.53
2018-08-20T18:47:10.153Z,3.33
2018-08-20T18:49:44.075Z,4.83
2018-08-20T18:52:13.761Z,3.30
2018-08-20T18:54:44.577Z,3.40
2018-08-20T18:57:18.362Z,5.43
2018-08-20T18:59:47.015Z,3.60
2018-08-20T19:03:21.033Z,4.57
2018-08-20T19:05:52.745Z,3.47
2018-08-20T19:08:24.592Z,4.17
2018-08-20T19:10:53.231Z,3.30
2018-08-20T19:13:21.810Z,3.17
2018-08-20T19:15:51.284Z,4.43
2018-08-20T19:18:23.893Z,3.13
2018-08-20T19:20:52.470Z,5.83
2018-08-20T19:23:21.105Z,2.87
2018-08-20T19:25:49.814Z,2.93
2018-08-20T19:28:24.242Z,5.00
2018-08-20T19:30:54.097Z,4.20
2018-08-20T19:33:24.868Z,5.00
2018-08-20T19:35:54.389Z,2.80
2018-08-20T19:38:23.257Z,5.10
2018-08-20T19:41:00.549Z,4.40
2018-08-20T19:43:33.724Z,4.03
2018-08-20T19:46:02.342Z,2.93
2018-08-20T19:48:30.923Z,3.50
2018-08-20T19:50:59.510Z,4.93
2018-08-20T19:53:28.065Z,3.47
2018-08-20T19:55:56.633Z,4.60
2018-08-20T19:58:30.649Z,4.33
2018-08-20T20:01:24.360Z,4.83
2018-08-20T20:03:53.061Z,4.87
2018-08-20T20:06:21.684Z,2.90
2018-08-20T20:08:50.262Z,3.77
2018-08-20T20:11:24.341Z,5.30
2018-08-20T20:13:54.184Z,2.87
2018-08-20T20:16:23.150Z,4.57
2018-08-20T20:18:52.168Z,5.40
2018-08-20T20:21:21.661Z,4.87
2018-08-20T20:23:50.343Z,4.50
2018-08-20T20:26:19.081Z,3.00
2018-08-20T20:28:47.716Z,4.80
2018-08-20T20:31:16.309Z,3.00
2018-08-20T20:33:44.961Z,3.67
2018-08-20T20:36:19.047Z,5.30
2018-08-20T20:38:48.060Z,3.40
2018-08-20T20:41:16.620Z,5.70
2018-08-20T20:43:45.264Z,3.53
2018-08-20T20:46:13.948Z,4.67
2018-08-20T20:48:42.532Z,5.00
2018-08-20T20:51:11.163Z,3.57
2018-08-20T20:53:39.813Z,5.00
2018-08-20T20:56:08.558Z,3.50
2018-08-20T20:58:38.118Z,3.67
2018-08-20T21:01:08.146Z,4.67
2018-08-20T21:03:36.970Z,3.20
2018-08-20T21:06:06.277Z,3.17
2018-08-20T21:08:40.896Z,3.47
2018-08-20T21:11:10.868Z,2.87
2018-08-20T21:13:39.815Z,3.70
2018-08-20T21:16:22.852Z,3.80
2018-08-20T21:18:55.668Z,3.87
2018-08-20T21:21:24.854Z,4.60
2018-08-20T21:24:00.412Z,4.40
2018-08-20T21:26:30.087Z,3.70
2018-08-20T21:28:58.929Z,3.43
2018-08-20T21:31:29.747Z,3.70
2018-08-20T21:34:00.529Z,3.63
2018-08-20T21:36:29.292Z,4.43
2018-08-20T21:38:57.948Z,4.10
2018-08-20T21:41:27.933Z,3.83
2018-08-20T21:43:56.605Z,4.03
2018-08-20T21:46:25.190Z,3.57
2018-08-20T21:48:55.140Z,4.67
2018-08-20T21:51:26.120Z,4.30
2018-08-20T21:53:54.749Z,3.20
2018-08-20T21:56:23.428Z,4.20
2018-08-20T21:58:52.032Z,4.47
2018-08-20T22:01:20.783Z,4.20
2018-08-20T22:03:49.500Z,4.10
2018-08-20T22:06:18.380Z,5.10
2018-08-20T22:08:47.000Z,5.43
2018-08-20T22:11:16.864Z,5.30
2018-08-20T22:13:45.651Z,5.10
2018-08-20T22:16:18.531Z,5.03
2018-08-20T22:18:49.308Z,4.90
2018-08-20T22:21:18.592Z,4.67
2018-08-20T22:23:47.793Z,4.83
2018-08-20T22:26:19.082Z,5.40
2018-08-20T22:28:49.893Z,4.40
2018-08-20T22:31:18.568Z,5.63
2018-08-20T22:33:54.909Z,5.50
2018-08-20T22:36:23.841Z,4.23
2018-08-20T22:38:54.854Z,4.13
2018-08-20T22:41:24.576Z,4.60
2018-08-20T22:43:53.177Z,3.67
2018-08-20T22:46:22.790Z,4.77
2018-08-20T22:48:53.021Z,4.73
2018-08-20T22:51:22.805Z,4.50
2018-08-20T22:53:52.651Z,5.07
2018-08-20T22:56:36.470Z,4.77
2018-08-20T22:59:10.013Z,4.10
2018-08-20T23:01:38.635Z,3.90
2018-08-20T23:04:07.672Z,3.97
2018-08-20T23:06:36.324Z,3.80
2018-08-20T23:09:21.441Z,4.10
2018-08-20T23:11:50.021Z,3.53
2018-08-20T23:14:18.632Z,3.63
2018-08-20T23:16:50.248Z,4.07
2018-08-20T23:19:19.224Z,4.10
2018-08-20T23:21:48.617Z,4.20
2018-08-20T23:24:17.840Z,3.63
2018-08-20T23:26:46.413Z,4.27
2018-08-20T23:29:15.002Z,3.70
2018-08-20T23:31:43.579Z,3.67
2018-08-20T23:34:15.921Z,3.53
2018-08-20T23:36:44.529Z,3.23
2018-08-20T23:39:14.368Z,3.70
2018-08-20T23:41:42.936Z,4.60
2018-08-20T23:44:12.312Z,3.40
2018-08-20T23:46:44.101Z,3.90
2018-08-20T23:49:12.704Z,4.87
2018-08-20T23:51:41.281Z,4.13
2018-08-20T23:54:11.001Z,4.80
2018-08-20T23:56:39.605Z,3.77
2018-08-20T23:59:08.512Z,5.10
